Elliston, Canada
Current Conditions -  °F | °C
As of 3:00 PM on Thursday 18 Dec 2014 (Local Time) from CYYT Reporting Station
Drizzle Drizzle  
Wind Chill: 29°   Ceiling: 100
Heat Index: 37°   Visibility: 0.25mi
Dew Point: 37°   Wind: 14mph
Humidity: 100%   Direction: 130°SE
Pressure: 29.88"   Gusts: NA
Location:  48.62°N, 53.03°W
Report Text: CYYT 181800Z 13012KT 1/4SM R11/3000V4500FT/U R16/3500FT/D -DZ FG VV001 03/03 A2988 RMK FG8 SLP123
Loading
Personal Weather Stations






























Interactive Weather Map New forecast layout! Learn more

10-Day Weather Forecast

Advertisements
Track Severe Weather on mobile